sensor_id;sensor_type;location;lat;lon;timestamp;P1;durP1;ratioP1;P2;durP2;ratioP2
74543;SDS011;63016;55.030;38.710;2023-03-17T00:00:47;24.48;;;11.52;;
74543;SDS011;63016;55.030;38.710;2023-03-17T00:03:23;25.67;;;12.20;;
74543;SDS011;63016;55.030;38.710;2023-03-17T00:05:51;29.38;;;12.85;;
74543;SDS011;63016;55.030;38.710;2023-03-17T00:10:43;29.92;;;14.13;;
74543;SDS011;63016;55.030;38.710;2023-03-17T00:13:09;29.92;;;14.75;;
74543;SDS011;63016;55.030;38.710;2023-03-17T00:15:35;32.33;;;15.18;;
74543;SDS011;63016;55.030;38.710;2023-03-17T00:18:01;30.42;;;15.00;;
74543;SDS011;63016;55.030;38.710;2023-03-17T00:20:28;35.63;;;15.88;;
74543;SDS011;63016;55.030;38.710;2023-03-17T00:22:59;33.95;;;16.08;;
74543;SDS011;63016;55.030;38.710;2023-03-17T00:25:29;34.45;;;16.80;;
74543;SDS011;63016;55.030;38.710;2023-03-17T00:27:57;36.88;;;16.95;;
74543;SDS011;63016;55.030;38.710;2023-03-17T00:30:24;35.08;;;16.08;;
74543;SDS011;63016;55.030;38.710;2023-03-17T00:32:51;37.10;;;16.55;;
74543;SDS011;63016;55.030;38.710;2023-03-17T00:37:47;31.38;;;14.57;;
74543;SDS011;63016;55.030;38.710;2023-03-17T00:40:14;29.48;;;14.10;;
74543;SDS011;63016;55.030;38.710;2023-03-17T00:42:41;33.88;;;14.93;;
74543;SDS011;63016;55.030;38.710;2023-03-17T00:45:06;31.20;;;14.43;;
74543;SDS011;63016;55.030;38.710;2023-03-17T00:47:32;32.65;;;14.63;;
74543;SDS011;63016;55.030;38.710;2023-03-17T00:49:58;33.38;;;14.27;;
74543;SDS011;63016;55.030;38.710;2023-03-17T00:52:23;31.10;;;14.73;;
74543;SDS011;63016;55.030;38.710;2023-03-17T00:54:51;28.70;;;12.98;;
74543;SDS011;63016;55.030;38.710;2023-03-17T00:57:16;29.10;;;13.93;;
74543;SDS011;63016;55.030;38.710;2023-03-17T00:59:42;31.48;;;13.50;;
74543;SDS011;63016;55.030;38.710;2023-03-17T01:02:11;26.60;;;13.45;;
74543;SDS011;63016;55.030;38.710;2023-03-17T01:04:37;26.73;;;12.10;;
74543;SDS011;63016;55.030;38.710;2023-03-17T01:07:04;26.10;;;12.77;;
74543;SDS011;63016;55.030;38.710;2023-03-17T01:09:30;23.48;;;11.52;;
74543;SDS011;63016;55.030;38.710;2023-03-17T01:11:58;21.77;;;10.18;;
74543;SDS011;63016;55.030;38.710;2023-03-17T01:14:23;25.98;;;11.80;;
74543;SDS011;63016;55.030;38.710;2023-03-17T01:16:49;18.60;;;9.13;;
74543;SDS011;63016;55.030;38.710;2023-03-17T01:19:17;15.98;;;8.40;;
74543;SDS011;63016;55.030;38.710;2023-03-17T01:21:43;16.77;;;7.82;;
74543;SDS011;63016;55.030;38.710;2023-03-17T01:24:10;14.23;;;6.72;;
74543;SDS011;63016;55.030;38.710;2023-03-17T01:26:37;14.48;;;7.03;;
74543;SDS011;63016;55.030;38.710;2023-03-17T01:29:03;12.52;;;6.32;;
74543;SDS011;63016;55.030;38.710;2023-03-17T01:31:30;12.18;;;6.15;;
74543;SDS011;63016;55.030;38.710;2023-03-17T01:33:56;10.18;;;5.55;;
74543;SDS011;63016;55.030;38.710;2023-03-17T01:36:21;8.93;;;4.90;;
74543;SDS011;63016;55.030;38.710;2023-03-17T01:38:47;8.02;;;4.57;;
74543;SDS011;63016;55.030;38.710;2023-03-17T01:41:15;8.73;;;5.57;;
74543;SDS011;63016;55.030;38.710;2023-03-17T01:43:41;7.70;;;4.80;;
74543;SDS011;63016;55.030;38.710;2023-03-17T01:54:36;6.93;;;3.75;;
74543;SDS011;63016;55.030;38.710;2023-03-17T01:57:11;6.70;;;4.03;;
74543;SDS011;63016;55.030;38.710;2023-03-17T01:59:46;8.15;;;3.67;;
74543;SDS011;63016;55.030;38.710;2023-03-17T02:02:34;7.05;;;4.18;;
74543;SDS011;63016;55.030;38.710;2023-03-17T02:05:03;6.18;;;3.55;;
74543;SDS011;63016;55.030;38.710;2023-03-17T02:07:30;6.03;;;3.90;;
74543;SDS011;63016;55.030;38.710;2023-03-17T02:09:57;6.20;;;3.60;;
74543;SDS011;63016;55.030;38.710;2023-03-17T02:12:23;5.22;;;3.65;;
74543;SDS011;63016;55.030;38.710;2023-03-17T02:14:50;5.65;;;3.55;;
74543;SDS011;63016;55.030;38.710;2023-03-17T02:17:17;5.63;;;3.95;;
74543;SDS011;63016;55.030;38.710;2023-03-17T02:19:45;5.03;;;3.40;;
74543;SDS011;63016;55.030;38.710;2023-03-17T02:22:10;6.20;;;3.53;;
74543;SDS011;63016;55.030;38.710;2023-03-17T02:24:38;7.15;;;3.95;;
74543;SDS011;63016;55.030;38.710;2023-03-17T02:27:15;4.97;;;3.45;;
74543;SDS011;63016;55.030;38.710;2023-03-17T02:29:43;5.60;;;3.40;;
74543;SDS011;63016;55.030;38.710;2023-03-17T02:32:13;5.32;;;3.53;;
74543;SDS011;63016;55.030;38.710;2023-03-17T02:34:41;6.25;;;3.42;;
74543;SDS011;63016;55.030;38.710;2023-03-17T02:37:08;5.50;;;3.35;;
74543;SDS011;63016;55.030;38.710;2023-03-17T02:39:33;6.43;;;3.35;;
74543;SDS011;63016;55.030;38.710;2023-03-17T02:41:59;6.72;;;3.58;;
74543;SDS011;63016;55.030;38.710;2023-03-17T02:44:25;5.22;;;3.45;;
74543;SDS011;63016;55.030;38.710;2023-03-17T02:46:51;4.82;;;3.08;;
74543;SDS011;63016;55.030;38.710;2023-03-17T02:49:16;5.10;;;3.47;;
74543;SDS011;63016;55.030;38.710;2023-03-17T02:51:42;7.43;;;3.72;;
74543;SDS011;63016;55.030;38.710;2023-03-17T02:54:09;6.97;;;3.65;;
74543;SDS011;63016;55.030;38.710;2023-03-17T02:56:34;7.25;;;2.95;;
74543;SDS011;63016;55.030;38.710;2023-03-17T02:59:00;6.60;;;3.42;;
74543;SDS011;63016;55.030;38.710;2023-03-17T03:01:26;6.22;;;3.30;;
74543;SDS011;63016;55.030;38.710;2023-03-17T03:03:53;6.18;;;3.65;;
74543;SDS011;63016;55.030;38.710;2023-03-17T03:06:19;6.85;;;3.25;;
74543;SDS011;63016;55.030;38.710;2023-03-17T03:08:44;7.32;;;3.00;;
74543;SDS011;63016;55.030;38.710;2023-03-17T03:11:10;7.63;;;4.07;;
74543;SDS011;63016;55.030;38.710;2023-03-17T03:13:36;5.75;;;3.45;;
74543;SDS011;63016;55.030;38.710;2023-03-17T03:16:03;11.30;;;3.95;;
74543;SDS011;63016;55.030;38.710;2023-03-17T03:18:28;6.43;;;3.83;;
74543;SDS011;63016;55.030;38.710;2023-03-17T03:20:54;6.60;;;3.92;;
74543;SDS011;63016;55.030;38.710;2023-03-17T03:23:20;5.82;;;3.88;;
74543;SDS011;63016;55.030;38.710;2023-03-17T03:25:46;5.75;;;3.95;;
74543;SDS011;63016;55.030;38.710;2023-03-17T03:28:12;8.98;;;4.57;;
74543;SDS011;63016;55.030;38.710;2023-03-17T03:30:38;7.20;;;4.68;;
74543;SDS011;63016;55.030;38.710;2023-03-17T03:33:03;9.60;;;5.30;;
74543;SDS011;63016;55.030;38.710;2023-03-17T03:35:30;10.20;;;4.72;;
74543;SDS011;63016;55.030;38.710;2023-03-17T03:37:56;10.18;;;5.18;;
74543;SDS011;63016;55.030;38.710;2023-03-17T03:40:22;8.32;;;4.60;;
74543;SDS011;63016;55.030;38.710;2023-03-17T03:42:48;9.82;;;5.18;;
74543;SDS011;63016;55.030;38.710;2023-03-17T03:45:13;12.38;;;4.85;;
74543;SDS011;63016;55.030;38.710;2023-03-17T03:47:39;10.45;;;5.43;;
74543;SDS011;63016;55.030;38.710;2023-03-17T03:50:05;8.85;;;5.28;;
74543;SDS011;63016;55.030;38.710;2023-03-17T03:52:31;8.85;;;5.18;;
74543;SDS011;63016;55.030;38.710;2023-03-17T03:54:57;9.73;;;5.22;;
74543;SDS011;63016;55.030;38.710;2023-03-17T03:57:22;10.05;;;6.07;;
74543;SDS011;63016;55.030;38.710;2023-03-17T03:59:48;9.65;;;5.75;;
74543;SDS011;63016;55.030;38.710;2023-03-17T04:02:13;10.07;;;6.38;;
74543;SDS011;63016;55.030;38.710;2023-03-17T04:04:41;9.48;;;5.63;;
74543;SDS011;63016;55.030;38.710;2023-03-17T04:07:07;9.18;;;5.20;;
74543;SDS011;63016;55.030;38.710;2023-03-17T04:09:33;8.63;;;5.75;;
74543;SDS011;63016;55.030;38.710;2023-03-17T04:12:00;11.70;;;5.97;;
74543;SDS011;63016;55.030;38.710;2023-03-17T04:14:25;9.95;;;5.65;;
74543;SDS011;63016;55.030;38.710;2023-03-17T04:16:52;11.80;;;4.90;;
74543;SDS011;63016;55.030;38.710;2023-03-17T04:19:18;9.40;;;5.03;;
74543;SDS011;63016;55.030;38.710;2023-03-17T04:21:45;9.82;;;5.05;;
74543;SDS011;63016;55.030;38.710;2023-03-17T04:24:11;9.95;;;4.75;;
74543;SDS011;63016;55.030;38.710;2023-03-17T04:26:37;8.88;;;4.90;;
74543;SDS011;63016;55.030;38.710;2023-03-17T04:29:03;8.65;;;4.55;;
74543;SDS011;63016;55.030;38.710;2023-03-17T04:31:32;7.78;;;4.43;;
74543;SDS011;63016;55.030;38.710;2023-03-17T04:33:57;7.75;;;4.38;;
74543;SDS011;63016;55.030;38.710;2023-03-17T04:36:23;7.32;;;3.72;;
74543;SDS011;63016;55.030;38.710;2023-03-17T04:38:48;8.07;;;3.30;;
74543;SDS011;63016;55.030;38.710;2023-03-17T04:41:14;6.18;;;2.85;;
74543;SDS011;63016;55.030;38.710;2023-03-17T04:43:40;8.38;;;3.40;;
74543;SDS011;63016;55.030;38.710;2023-03-17T04:46:08;6.07;;;3.10;;
74543;SDS011;63016;55.030;38.710;2023-03-17T04:48:35;4.40;;;2.80;;
74543;SDS011;63016;55.030;38.710;2023-03-17T04:51:00;4.65;;;2.58;;
74543;SDS011;63016;55.030;38.710;2023-03-17T04:53:26;4.40;;;2.25;;
74543;SDS011;63016;55.030;38.710;2023-03-17T04:55:52;5.82;;;2.50;;
74543;SDS011;63016;55.030;38.710;2023-03-17T04:58:18;3.17;;;2.08;;
74543;SDS011;63016;55.030;38.710;2023-03-17T05:00:43;4.07;;;2.20;;
74543;SDS011;63016;55.030;38.710;2023-03-17T05:03:09;4.57;;;2.75;;
74543;SDS011;63016;55.030;38.710;2023-03-17T05:05:36;5.00;;;2.13;;
74543;SDS011;63016;55.030;38.710;2023-03-17T05:08:02;3.42;;;1.92;;
74543;SDS011;63016;55.030;38.710;2023-03-17T05:10:27;12.07;;;2.60;;
74543;SDS011;63016;55.030;38.710;2023-03-17T05:12:53;5.18;;;1.70;;
74543;SDS011;63016;55.030;38.710;2023-03-17T05:15:18;4.43;;;2.22;;
74543;SDS011;63016;55.030;38.710;2023-03-17T05:17:45;5.07;;;1.67;;
74543;SDS011;63016;55.030;38.710;2023-03-17T05:20:10;3.55;;;1.98;;
74543;SDS011;63016;55.030;38.710;2023-03-17T05:22:36;4.47;;;2.03;;
74543;SDS011;63016;55.030;38.710;2023-03-17T05:25:02;2.85;;;1.77;;
74543;SDS011;63016;55.030;38.710;2023-03-17T05:27:28;2.90;;;1.83;;
74543;SDS011;63016;55.030;38.710;2023-03-17T05:29:54;4.20;;;1.95;;
74543;SDS011;63016;55.030;38.710;2023-03-17T05:32:22;3.47;;;1.88;;
74543;SDS011;63016;55.030;38.710;2023-03-17T05:34:48;3.85;;;1.95;;
74543;SDS011;63016;55.030;38.710;2023-03-17T05:37:14;3.15;;;1.90;;
74543;SDS011;63016;55.030;38.710;2023-03-17T05:39:40;5.30;;;2.20;;
74543;SDS011;63016;55.030;38.710;2023-03-17T05:42:06;6.53;;;1.80;;
74543;SDS011;63016;55.030;38.710;2023-03-17T05:44:32;2.80;;;1.75;;
74543;SDS011;63016;55.030;38.710;2023-03-17T05:46:58;3.35;;;1.92;;
74543;SDS011;63016;55.030;38.710;2023-03-17T05:49:24;3.47;;;1.73;;
74543;SDS011;63016;55.030;38.710;2023-03-17T05:51:50;2.75;;;1.52;;
74543;SDS011;63016;55.030;38.710;2023-03-17T05:54:16;3.20;;;2.13;;
74543;SDS011;63016;55.030;38.710;2023-03-17T05:56:42;4.25;;;1.70;;
74543;SDS011;63016;55.030;38.710;2023-03-17T05:59:07;5.72;;;1.98;;
74543;SDS011;63016;55.030;38.710;2023-03-17T06:01:34;3.65;;;2.22;;
74543;SDS011;63016;55.030;38.710;2023-03-17T06:04:00;3.53;;;1.80;;
74543;SDS011;63016;55.030;38.710;2023-03-17T06:06:26;4.15;;;1.98;;
74543;SDS011;63016;55.030;38.710;2023-03-17T06:08:52;4.78;;;1.80;;
74543;SDS011;63016;55.030;38.710;2023-03-17T06:11:18;4.47;;;2.10;;
74543;SDS011;63016;55.030;38.710;2023-03-17T06:13:45;4.95;;;2.17;;
74543;SDS011;63016;55.030;38.710;2023-03-17T06:16:11;5.88;;;2.08;;
74543;SDS011;63016;55.030;38.710;2023-03-17T06:18:37;3.35;;;1.70;;
74543;SDS011;63016;55.030;38.710;2023-03-17T06:21:03;3.20;;;2.05;;
74543;SDS011;63016;55.030;38.710;2023-03-17T06:23:28;5.57;;;2.33;;
74543;SDS011;63016;55.030;38.710;2023-03-17T06:25:55;3.92;;;1.90;;
74543;SDS011;63016;55.030;38.710;2023-03-17T06:28:20;3.08;;;1.80;;
74543;SDS011;63016;55.030;38.710;2023-03-17T06:30:47;2.45;;;1.52;;
74543;SDS011;63016;55.030;38.710;2023-03-17T06:33:12;4.47;;;2.10;;
74543;SDS011;63016;55.030;38.710;2023-03-17T06:35:38;3.45;;;1.80;;
74543;SDS011;63016;55.030;38.710;2023-03-17T06:38:04;3.55;;;1.88;;
74543;SDS011;63016;55.030;38.710;2023-03-17T06:40:30;3.47;;;1.70;;
74543;SDS011;63016;55.030;38.710;2023-03-17T06:42:56;4.07;;;2.10;;
74543;SDS011;63016;55.030;38.710;2023-03-17T06:45:22;3.42;;;2.35;;
74543;SDS011;63016;55.030;38.710;2023-03-17T06:47:47;6.05;;;2.03;;
74543;SDS011;63016;55.030;38.710;2023-03-17T06:50:13;4.50;;;2.28;;
74543;SDS011;63016;55.030;38.710;2023-03-17T06:52:39;5.00;;;2.30;;
74543;SDS011;63016;55.030;38.710;2023-03-17T06:55:05;4.47;;;2.10;;
74543;SDS011;63016;55.030;38.710;2023-03-17T06:57:32;3.90;;;2.47;;
74543;SDS011;63016;55.030;38.710;2023-03-17T06:59:58;4.93;;;2.20;;
74543;SDS011;63016;55.030;38.710;2023-03-17T07:02:25;4.95;;;2.50;;
74543;SDS011;63016;55.030;38.710;2023-03-17T07:04:50;4.47;;;2.50;;
74543;SDS011;63016;55.030;38.710;2023-03-17T07:07:16;4.65;;;2.83;;
74543;SDS011;63016;55.030;38.710;2023-03-17T07:09:43;5.40;;;3.00;;
74543;SDS011;63016;55.030;38.710;2023-03-17T07:12:09;6.70;;;3.40;;
74543;SDS011;63016;55.030;38.710;2023-03-17T07:14:35;5.70;;;3.10;;
74543;SDS011;63016;55.030;38.710;2023-03-17T07:17:04;6.97;;;3.63;;
74543;SDS011;63016;55.030;38.710;2023-03-17T07:19:30;9.13;;;4.00;;
74543;SDS011;63016;55.030;38.710;2023-03-17T07:21:57;7.82;;;3.45;;
74543;SDS011;63016;55.030;38.710;2023-03-17T07:24:23;7.00;;;3.45;;
74543;SDS011;63016;55.030;38.710;2023-03-17T07:26:49;7.25;;;3.13;;
74543;SDS011;63016;55.030;38.710;2023-03-17T07:29:15;12.23;;;3.35;;
74543;SDS011;63016;55.030;38.710;2023-03-17T07:31:41;5.40;;;2.90;;
74543;SDS011;63016;55.030;38.710;2023-03-17T07:34:08;4.20;;;2.67;;
74543;SDS011;63016;55.030;38.710;2023-03-17T07:36:34;4.43;;;2.97;;
74543;SDS011;63016;55.030;38.710;2023-03-17T07:39:00;8.30;;;2.50;;
74543;SDS011;63016;55.030;38.710;2023-03-17T07:41:26;6.07;;;2.75;;
74543;SDS011;63016;55.030;38.710;2023-03-17T07:43:52;3.70;;;2.10;;
74543;SDS011;63016;55.030;38.710;2023-03-17T07:46:18;5.20;;;2.63;;
74543;SDS011;63016;55.030;38.710;2023-03-17T07:48:43;5.13;;;2.15;;
74543;SDS011;63016;55.030;38.710;2023-03-17T07:51:17;5.68;;;2.05;;
74543;SDS011;63016;55.030;38.710;2023-03-17T07:53:45;4.35;;;2.13;;
74543;SDS011;63016;55.030;38.710;2023-03-17T07:56:11;4.63;;;2.00;;
74543;SDS011;63016;55.030;38.710;2023-03-17T07:58:38;3.65;;;1.98;;
74543;SDS011;63016;55.030;38.710;2023-03-17T08:01:04;3.88;;;1.75;;
74543;SDS011;63016;55.030;38.710;2023-03-17T08:03:31;3.33;;;1.67;;
74543;SDS011;63016;55.030;38.710;2023-03-17T08:05:57;3.83;;;1.60;;
74543;SDS011;63016;55.030;38.710;2023-03-17T08:08:24;4.80;;;1.80;;
74543;SDS011;63016;55.030;38.710;2023-03-17T08:10:50;4.35;;;1.40;;
74543;SDS011;63016;55.030;38.710;2023-03-17T08:13:16;2.67;;;1.40;;
74543;SDS011;63016;55.030;38.710;2023-03-17T08:15:43;3.10;;;1.48;;
74543;SDS011;63016;55.030;38.710;2023-03-17T08:18:08;2.22;;;1.20;;
74543;SDS011;63016;55.030;38.710;2023-03-17T08:20:34;2.17;;;1.30;;
74543;SDS011;63016;55.030;38.710;2023-03-17T08:23:00;2.70;;;1.50;;
74543;SDS011;63016;55.030;38.710;2023-03-17T08:25:29;3.22;;;1.27;;
74543;SDS011;63016;55.030;38.710;2023-03-17T08:27:55;4.35;;;1.55;;
74543;SDS011;63016;55.030;38.710;2023-03-17T08:30:21;4.95;;;1.45;;
74543;SDS011;63016;55.030;38.710;2023-03-17T08:32:47;3.15;;;1.40;;
74543;SDS011;63016;55.030;38.710;2023-03-17T08:35:13;4.30;;;1.38;;
74543;SDS011;63016;55.030;38.710;2023-03-17T08:37:41;3.40;;;1.40;;
74543;SDS011;63016;55.030;38.710;2023-03-17T08:40:09;3.45;;;1.70;;
74543;SDS011;63016;55.030;38.710;2023-03-17T08:42:36;4.05;;;1.30;;
74543;SDS011;63016;55.030;38.710;2023-03-17T08:45:02;4.88;;;1.77;;
74543;SDS011;63016;55.030;38.710;2023-03-17T08:47:30;2.95;;;1.42;;
74543;SDS011;63016;55.030;38.710;2023-03-17T08:49:57;3.33;;;1.17;;
74543;SDS011;63016;55.030;38.710;2023-03-17T08:52:24;3.70;;;1.25;;
74543;SDS011;63016;55.030;38.710;2023-03-17T08:54:52;4.43;;;1.05;;
74543;SDS011;63016;55.030;38.710;2023-03-17T08:57:18;3.33;;;1.30;;
74543;SDS011;63016;55.030;38.710;2023-03-17T08:59:44;3.33;;;1.00;;
74543;SDS011;63016;55.030;38.710;2023-03-17T09:02:10;2.65;;;1.20;;
74543;SDS011;63016;55.030;38.710;2023-03-17T09:04:37;1.75;;;1.00;;
74543;SDS011;63016;55.030;38.710;2023-03-17T09:07:04;2.08;;;0.90;;
74543;SDS011;63016;55.030;38.710;2023-03-17T09:09:33;3.03;;;1.10;;
74543;SDS011;63016;55.030;38.710;2023-03-17T09:11:59;2.78;;;0.80;;
74543;SDS011;63016;55.030;38.710;2023-03-17T09:14:26;3.00;;;0.80;;
74543;SDS011;63016;55.030;38.710;2023-03-17T09:16:52;2.35;;;1.00;;
74543;SDS011;63016;55.030;38.710;2023-03-17T09:19:18;3.42;;;0.93;;
74543;SDS011;63016;55.030;38.710;2023-03-17T09:21:45;1.60;;;0.80;;
74543;SDS011;63016;55.030;38.710;2023-03-17T09:24:11;2.22;;;0.73;;
74543;SDS011;63016;55.030;38.710;2023-03-17T09:26:37;2.65;;;0.80;;
74543;SDS011;63016;55.030;38.710;2023-03-17T09:29:03;2.40;;;0.90;;
74543;SDS011;63016;55.030;38.710;2023-03-17T09:31:29;2.15;;;0.90;;
74543;SDS011;63016;55.030;38.710;2023-03-17T09:33:56;1.58;;;0.77;;
74543;SDS011;63016;55.030;38.710;2023-03-17T09:36:21;3.00;;;0.80;;
74543;SDS011;63016;55.030;38.710;2023-03-17T09:38:47;1.67;;;0.85;;
74543;SDS011;63016;55.030;38.710;2023-03-17T09:49:13;2.78;;;1.10;;
74543;SDS011;63016;55.030;38.710;2023-03-17T09:51:44;1.33;;;0.90;;
74543;SDS011;63016;55.030;38.710;2023-03-17T09:56:45;5.20;;;1.10;;
74543;SDS011;63016;55.030;38.710;2023-03-17T10:02:05;3.45;;;1.08;;
74543;SDS011;63016;55.030;38.710;2023-03-17T10:04:45;2.10;;;0.93;;
74543;SDS011;63016;55.030;38.710;2023-03-17T10:07:13;2.17;;;0.70;;
74543;SDS011;63016;55.030;38.710;2023-03-17T10:15:33;1.58;;;0.70;;
74543;SDS011;63016;55.030;38.710;2023-03-17T10:18:09;1.65;;;0.77;;
74543;SDS011;63016;55.030;38.710;2023-03-17T10:20:51;2.28;;;0.90;;
74543;SDS011;63016;55.030;38.710;2023-03-17T10:23:23;3.60;;;0.80;;
74543;SDS011;63016;55.030;38.710;2023-03-17T10:25:54;1.60;;;0.70;;
74543;SDS011;63016;55.030;38.710;2023-03-17T10:30:53;3.35;;;0.70;;
74543;SDS011;63016;55.030;38.710;2023-03-17T10:33:21;3.88;;;0.80;;
74543;SDS011;63016;55.030;38.710;2023-03-17T10:35:47;1.67;;;0.63;;
74543;SDS011;63016;55.030;38.710;2023-03-17T10:38:22;1.63;;;0.63;;
74543;SDS011;63016;55.030;38.710;2023-03-17T10:40:58;1.00;;;0.60;;
74543;SDS011;63016;55.030;38.710;2023-03-17T10:43:27;1.50;;;0.80;;
74543;SDS011;63016;55.030;38.710;2023-03-17T10:45:59;1.83;;;0.50;;
74543;SDS011;63016;55.030;38.710;2023-03-17T10:48:26;1.33;;;0.60;;
74543;SDS011;63016;55.030;38.710;2023-03-17T10:50:55;1.13;;;0.60;;
74543;SDS011;63016;55.030;38.710;2023-03-17T10:53:23;4.60;;;0.70;;
74543;SDS011;63016;55.030;38.710;2023-03-17T10:55:55;2.00;;;0.60;;
74543;SDS011;63016;55.030;38.710;2023-03-17T11:01:20;0.82;;;0.55;;
74543;SDS011;63016;55.030;38.710;2023-03-17T11:03:55;1.88;;;0.40;;
74543;SDS011;63016;55.030;38.710;2023-03-17T11:06:37;1.75;;;0.40;;
74543;SDS011;63016;55.030;38.710;2023-03-17T11:09:08;0.70;;;0.40;;
74543;SDS011;63016;55.030;38.710;2023-03-17T11:11:42;1.10;;;0.50;;
74543;SDS011;63016;55.030;38.710;2023-03-17T11:16:47;1.75;;;0.55;;
74543;SDS011;63016;55.030;38.710;2023-03-17T11:22:17;0.70;;;0.40;;
74543;SDS011;63016;55.030;38.710;2023-03-17T11:25:02;0.77;;;0.50;;
74543;SDS011;63016;55.030;38.710;2023-03-17T11:27:34;1.00;;;0.47;;
74543;SDS011;63016;55.030;38.710;2023-03-17T11:30:23;1.67;;;0.30;;
74543;SDS011;63016;55.030;38.710;2023-03-17T11:32:54;1.65;;;0.40;;
74543;SDS011;63016;55.030;38.710;2023-03-17T11:46:11;0.80;;;0.40;;
74543;SDS011;63016;55.030;38.710;2023-03-17T12:00:12;2.30;;;0.40;;
74543;SDS011;63016;55.030;38.710;2023-03-17T12:02:47;0.63;;;0.30;;
74543;SDS011;63016;55.030;38.710;2023-03-17T12:05:25;1.27;;;0.30;;
74543;SDS011;63016;55.030;38.710;2023-03-17T12:12:59;1.45;;;0.40;;
74543;SDS011;63016;55.030;38.710;2023-03-17T12:15:38;0.60;;;0.40;;
74543;SDS011;63016;55.030;38.710;2023-03-17T12:21:03;1.20;;;0.50;;
74543;SDS011;63016;55.030;38.710;2023-03-17T12:26:33;1.88;;;0.82;;
74543;SDS011;63016;55.030;38.710;2023-03-17T12:29:11;1.48;;;0.40;;
74543;SDS011;63016;55.030;38.710;2023-03-17T12:31:40;0.50;;;0.30;;
74543;SDS011;63016;55.030;38.710;2023-03-17T12:34:20;1.00;;;0.40;;
74543;SDS011;63016;55.030;38.710;2023-03-17T12:36:49;1.33;;;0.40;;
74543;SDS011;63016;55.030;38.710;2023-03-17T12:39:17;1.65;;;0.45;;
74543;SDS011;63016;55.030;38.710;2023-03-17T12:44:31;0.55;;;0.40;;
74543;SDS011;63016;55.030;38.710;2023-03-17T12:55:33;3.22;;;0.75;;
74543;SDS011;63016;55.030;38.710;2023-03-17T12:58:03;1.65;;;0.50;;
74543;SDS011;63016;55.030;38.710;2023-03-17T13:00:49;1.52;;;0.65;;
74543;SDS011;63016;55.030;38.710;2023-03-17T13:03:24;2.33;;;0.50;;
74543;SDS011;63016;55.030;38.710;2023-03-17T13:05:53;0.70;;;0.40;;
74543;SDS011;63016;55.030;38.710;2023-03-17T13:08:24;1.23;;;0.33;;
74543;SDS011;63016;55.030;38.710;2023-03-17T13:11:16;0.57;;;0.30;;
74543;SDS011;63016;55.030;38.710;2023-03-17T13:14:05;0.40;;;0.30;;
74543;SDS011;63016;55.030;38.710;2023-03-17T13:17:02;3.92;;;0.60;;
74543;SDS011;63016;55.030;38.710;2023-03-17T13:19:30;1.00;;;0.47;;
74543;SDS011;63016;55.030;38.710;2023-03-17T13:27:11;0.93;;;0.40;;
74543;SDS011;63016;55.030;38.710;2023-03-17T13:43:54;1.33;;;0.60;;
74543;SDS011;63016;55.030;38.710;2023-03-17T13:46:42;2.05;;;0.40;;
74543;SDS011;63016;55.030;38.710;2023-03-17T13:51:42;1.13;;;0.40;;
74543;SDS011;63016;55.030;38.710;2023-03-17T13:56:52;1.52;;;0.40;;
74543;SDS011;63016;55.030;38.710;2023-03-17T13:59:20;0.60;;;0.50;;
74543;SDS011;63016;55.030;38.710;2023-03-17T14:01:50;0.75;;;0.50;;
74543;SDS011;63016;55.030;38.710;2023-03-17T14:04:24;0.98;;;0.35;;
74543;SDS011;63016;55.030;38.710;2023-03-17T14:06:58;2.50;;;0.40;;
74543;SDS011;63016;55.030;38.710;2023-03-17T14:09:37;2.35;;;0.50;;
74543;SDS011;63016;55.030;38.710;2023-03-17T14:12:09;1.73;;;0.45;;
74543;SDS011;63016;55.030;38.710;2023-03-17T14:17:27;0.95;;;0.40;;
74543;SDS011;63016;55.030;38.710;2023-03-17T14:20:18;0.55;;;0.40;;
74543;SDS011;63016;55.030;38.710;2023-03-17T14:22:47;0.55;;;0.40;;
74543;SDS011;63016;55.030;38.710;2023-03-17T14:27:47;0.50;;;0.40;;
74543;SDS011;63016;55.030;38.710;2023-03-17T14:30:20;1.17;;;0.40;;
74543;SDS011;63016;55.030;38.710;2023-03-17T14:33:02;0.50;;;0.35;;
74543;SDS011;63016;55.030;38.710;2023-03-17T14:35:29;0.90;;;0.50;;
74543;SDS011;63016;55.030;38.710;2023-03-17T14:38:01;1.00;;;0.50;;
74543;SDS011;63016;55.030;38.710;2023-03-17T14:40:29;3.00;;;0.70;;
74543;SDS011;63016;55.030;38.710;2023-03-17T14:43:00;2.13;;;0.63;;
74543;SDS011;63016;55.030;38.710;2023-03-17T14:45:27;1.67;;;0.60;;
74543;SDS011;63016;55.030;38.710;2023-03-17T14:48:08;2.08;;;0.55;;
74543;SDS011;63016;55.030;38.710;2023-03-17T14:50:45;1.33;;;0.52;;
74543;SDS011;63016;55.030;38.710;2023-03-17T14:53:15;0.95;;;0.63;;
74543;SDS011;63016;55.030;38.710;2023-03-17T14:55:41;1.15;;;0.55;;
74543;SDS011;63016;55.030;38.710;2023-03-17T14:58:09;2.88;;;0.60;;
74543;SDS011;63016;55.030;38.710;2023-03-17T15:00:52;1.05;;;0.45;;
74543;SDS011;63016;55.030;38.710;2023-03-17T15:03:21;0.80;;;0.50;;
74543;SDS011;63016;55.030;38.710;2023-03-17T15:05:48;3.35;;;0.50;;
74543;SDS011;63016;55.030;38.710;2023-03-17T15:11:07;3.70;;;0.50;;
74543;SDS011;63016;55.030;38.710;2023-03-17T15:13:41;1.00;;;0.50;;
74543;SDS011;63016;55.030;38.710;2023-03-17T15:16:49;2.28;;;0.50;;
74543;SDS011;63016;55.030;38.710;2023-03-17T15:21:42;2.30;;;0.50;;
74543;SDS011;63016;55.030;38.710;2023-03-17T15:26:46;1.83;;;0.43;;
74543;SDS011;63016;55.030;38.710;2023-03-17T15:29:11;0.90;;;0.40;;
74543;SDS011;63016;55.030;38.710;2023-03-17T15:31:37;1.00;;;0.80;;
74543;SDS011;63016;55.030;38.710;2023-03-17T15:34:02;1.52;;;0.50;;
74543;SDS011;63016;55.030;38.710;2023-03-17T15:36:28;1.65;;;0.73;;
74543;SDS011;63016;55.030;38.710;2023-03-17T15:38:53;2.17;;;0.60;;
74543;SDS011;63016;55.030;38.710;2023-03-17T15:41:19;1.35;;;0.70;;
74543;SDS011;63016;55.030;38.710;2023-03-17T15:43:45;2.78;;;1.00;;
74543;SDS011;63016;55.030;38.710;2023-03-17T15:46:18;6.95;;;1.77;;
74543;SDS011;63016;55.030;38.710;2023-03-17T15:48:47;16.77;;;3.92;;
74543;SDS011;63016;55.030;38.710;2023-03-17T15:51:13;14.25;;;3.42;;
74543;SDS011;63016;55.030;38.710;2023-03-17T15:53:40;12.43;;;2.35;;
74543;SDS011;63016;55.030;38.710;2023-03-17T15:56:08;9.35;;;2.63;;
74543;SDS011;63016;55.030;38.710;2023-03-17T15:58:46;5.60;;;1.70;;
74543;SDS011;63016;55.030;38.710;2023-03-17T16:01:13;4.60;;;1.35;;
74543;SDS011;63016;55.030;38.710;2023-03-17T16:03:40;4.38;;;1.10;;
74543;SDS011;63016;55.030;38.710;2023-03-17T16:06:27;2.50;;;0.90;;
74543;SDS011;63016;55.030;38.710;2023-03-17T16:08:53;3.55;;;0.85;;
74543;SDS011;63016;55.030;38.710;2023-03-17T16:11:19;2.63;;;0.80;;
74543;SDS011;63016;55.030;38.710;2023-03-17T16:13:52;3.90;;;0.93;;
74543;SDS011;63016;55.030;38.710;2023-03-17T16:16:28;2.40;;;0.90;;
74543;SDS011;63016;55.030;38.710;2023-03-17T16:18:58;2.65;;;0.80;;
74543;SDS011;63016;55.030;38.710;2023-03-17T16:21:24;2.45;;;0.82;;
74543;SDS011;63016;55.030;38.710;2023-03-17T16:23:50;2.63;;;0.95;;
74543;SDS011;63016;55.030;38.710;2023-03-17T16:26:16;3.67;;;0.88;;
74543;SDS011;63016;55.030;38.710;2023-03-17T16:28:42;2.03;;;0.90;;
74543;SDS011;63016;55.030;38.710;2023-03-17T16:31:20;1.63;;;0.80;;
74543;SDS011;63016;55.030;38.710;2023-03-17T16:33:51;1.63;;;0.90;;
74543;SDS011;63016;55.030;38.710;2023-03-17T16:36:17;4.07;;;0.98;;
74543;SDS011;63016;55.030;38.710;2023-03-17T16:38:45;1.70;;;0.80;;
74543;SDS011;63016;55.030;38.710;2023-03-17T16:41:14;2.22;;;1.00;;
74543;SDS011;63016;55.030;38.710;2023-03-17T16:43:43;2.05;;;1.13;;